TitleAuthorLatest activityViews
ThreadKevinB9November 22, 2017 5:07:33 PM 1070 0 6
Threadbiankas72552495November 22, 2017 3:52:38 PM 380 0 1
ThreadotterstreamNovember 22, 2017 3:19:25 PM 290 0 1
Threadraaj1November 22, 2017 3:19:23 PM 390 0 2
Threadkellyd23394505November 22, 2017 3:06:50 PM 330 0 1
Threadnigelh70638339November 22, 2017 12:57:33 PM 1570 0 13
ThreadNancy OSheaNovember 22, 2017 11:57:35 AM 2071 0 9
ThreadAnotherMeNovember 22, 2017 10:28:46 AM 1220 0 9
ThreadmichaelvergesNovember 22, 2017 10:17:59 AM 1190 0 7
Threadkineticcreative123November 22, 2017 9:41:45 AM 2140 0 11
Threadiris_on_adobeNovember 22, 2017 9:41:15 AM 2420 0 8
Threadoskark29302609November 22, 2017 9:07:51 AM 1000 0 8
ThreadSolar GaryNovember 22, 2017 9:01:03 AM 3010 0 8
ThreadLeeBowNovember 22, 2017 8:58:37 AM 611 0 3
Threadsdinweoinasd9384152November 22, 2017 8:56:04 AM 940 0 6
ThreadOrchids-WorldNovember 22, 2017 7:55:04 AM 54073 0 18
ThreadSTOP-SPAMMING-MENovember 22, 2017 7:23:32 AM 19156 0 39
ThreadNetoperNovember 22, 2017 5:42:20 AM 1631 0 3
ThreadNancy OSheaNovember 22, 2017 4:58:27 AM 2271 0 9
ThreadTjStormNovember 22, 2017 4:13:07 AM 440 0 0